Time;durP1;ratioP1;P1;durP2;ratioP2;P2;SDS_P1;SDS_P2;PMS_P1;PMS_P2;Temp;Humidity;BMP_temperature;BMP_pressure;BME280_temperature;BME280_humidity;BME280_pressure;Samples;Min_cycle;Max_cycle;Signal;HPM_P1;HPM_P2
2021/07/04 00:00:40;;;;;;;18.25;16.85;;;16.70;85.20;;;;;;4981758;29;20111;-72
2021/07/04 00:03:13;;;;;;;18.58;16.98;;;16.80;84.50;;;;;;4983285;29;20042;-73
2021/07/04 00:05:48;;;;;;;18.52;17.13;;;16.80;84.70;;;;;;4981656;29;20066;-71
2021/07/04 00:08:26;;;;;;;18.15;16.75;;;16.70;84.80;;;;;;4981845;29;20146;-72
2021/07/04 00:11:00;;;;;;;18.60;17.10;;;16.70;84.80;;;;;;4995296;29;20111;-71
2021/07/04 00:13:33;;;;;;;18.60;17.02;;;16.70;85.40;;;;;;4982710;29;20583;-71
2021/07/04 00:16:06;;;;;;;18.13;16.55;;;16.70;85.40;;;;;;4995784;29;20050;-72
2021/07/04 00:18:38;;;;;;;18.83;17.33;;;16.60;85.40;;;;;;4982886;29;20536;-72
2021/07/04 00:21:10;;;;;;;18.60;17.10;;;16.60;85.20;;;;;;4981575;29;20209;-72
2021/07/04 00:23:42;;;;;;;18.83;17.33;;;16.60;84.90;;;;;;4981974;29;20055;-72
2021/07/04 00:26:14;;;;;;;18.17;16.77;;;16.60;84.80;;;;;;4981833;29;20070;-72
2021/07/04 00:28:46;;;;;;;18.77;17.17;;;16.60;84.70;;;;;;4982423;29;20050;-74
2021/07/04 00:31:18;;;;;;;19.10;17.55;;;16.60;85.20;;;;;;4995676;29;20857;-72
2021/07/04 00:33:50;;;;;;;18.25;16.75;;;16.60;84.40;;;;;;4982057;29;20084;-73
2021/07/04 00:36:23;;;;;;;18.05;16.55;;;16.50;84.20;;;;;;4981225;29;20129;-73
2021/07/04 00:38:55;;;;;;;18.58;17.08;;;16.50;84.10;;;;;;4995653;29;20058;-73
2021/07/04 00:41:27;;;;;;;18.05;16.63;;;16.50;84.90;;;;;;4982331;29;20054;-72
2021/07/04 00:43:59;;;;;;;19.13;17.17;;;16.50;84.50;;;;;;4979623;29;20146;-71
2021/07/04 00:46:31;;;;;;;18.67;17.15;;;16.50;84.80;;;;;;4994956;29;20105;-73
2021/07/04 00:49:04;;;;;;;18.75;17.10;;;16.50;85.40;;;;;;4980498;29;20058;-72
2021/07/04 00:51:38;;;;;;;17.95;16.45;;;16.50;85.40;;;;;;4981882;29;20078;-74
2021/07/04 00:54:10;;;;;;;17.55;16.05;;;16.50;85.20;;;;;;4995239;29;20107;-73
2021/07/04 00:56:42;;;;;;;18.38;16.88;;;16.50;85.00;;;;;;4981569;29;20065;-73
2021/07/04 00:59:16;;;;;;;18.75;17.35;;;16.50;84.60;;;;;;4986775;29;20115;-72
2021/07/04 01:01:49;;;;;;;17.90;16.40;;;16.40;84.60;;;;;;4995400;29;20042;-73
2021/07/04 01:04:22;;;;;;;18.55;17.05;;;16.40;84.40;;;;;;4981658;29;20079;-73
2021/07/04 01:06:55;;;;;;;17.35;16.05;;;16.40;84.20;;;;;;4994949;29;22426;-72
2021/07/04 01:09:28;;;;;;;18.08;16.67;;;16.50;84.20;;;;;;4995472;29;20133;-73
2021/07/04 01:12:01;;;;;;;18.13;16.73;;;16.50;84.50;;;;;;4981702;29;20050;-73
2021/07/04 01:14:34;;;;;;;17.35;16.02;;;16.50;85.00;;;;;;4993943;29;20067;-74
2021/07/04 01:17:06;;;;;;;17.88;16.48;;;16.50;85.10;;;;;;4981179;29;20050;-72
2021/07/04 01:19:38;;;;;;;17.13;15.82;;;16.50;85.00;;;;;;4981163;29;20042;-73
2021/07/04 01:22:13;;;;;;;17.73;16.40;;;16.40;84.80;;;;;;4994834;29;20115;-72
2021/07/04 01:24:46;;;;;;;17.52;16.13;;;16.50;84.90;;;;;;4992886;29;20481;-73
2021/07/04 01:27:19;;;;;;;17.67;16.38;;;16.40;85.00;;;;;;4995161;29;20050;-73
2021/07/04 01:29:51;;;;;;;16.92;15.63;;;16.50;84.90;;;;;;4981301;29;20089;-73
2021/07/04 01:32:23;;;;;;;18.02;16.63;;;16.40;84.80;;;;;;4981483;29;20051;-72
2021/07/04 01:34:55;;;;;;;17.63;16.30;;;16.50;85.20;;;;;;4994988;29;20137;-72
2021/07/04 01:37:28;;;;;;;18.42;16.92;;;16.40;85.30;;;;;;4994135;29;20059;-72
2021/07/04 01:40:02;;;;;;;18.48;16.98;;;16.40;86.80;;;;;;4995284;29;20424;-71
2021/07/04 01:42:35;;;;;;;17.95;16.55;;;16.30;86.20;;;;;;4981713;29;20050;-72
2021/07/04 01:45:08;;;;;;;17.92;16.52;;;16.20;86.40;;;;;;4980589;29;20453;-73
2021/07/04 01:47:43;;;;;;;18.23;16.73;;;16.20;86.30;;;;;;4994708;29;20058;-73
2021/07/04 01:50:29;;;;;;;19.00;17.50;;;16.20;86.60;;;;;;4995070;29;20141;-73
2021/07/04 01:53:03;;;;;;;18.73;17.23;;;16.20;86.40;;;;;;4994914;29;20073;-73
2021/07/04 01:55:36;;;;;;;18.73;17.17;;;16.20;85.80;;;;;;4980415;29;20607;-73
2021/07/04 01:58:08;;;;;;;17.95;16.55;;;16.30;85.90;;;;;;4995570;29;20046;-74
2021/07/04 02:00:49;;;;;;;17.48;16.17;;;16.20;85.70;;;;;;4994490;29;20131;-74
2021/07/04 02:03:21;;;;;;;17.95;16.55;;;16.20;85.60;;;;;;4994971;29;20107;-73
2021/07/04 02:06:00;;;;;;;18.23;16.83;;;16.10;86.00;;;;;;4993111;29;20095;-73
2021/07/04 02:08:33;;;;;;;17.75;16.40;;;16.10;86.20;;;;;;4980199;29;20039;-74
2021/07/04 02:11:09;;;;;;;18.42;16.67;;;16.10;86.40;;;;;;4993572;29;20069;-74
2021/07/04 02:13:46;;;;;;;18.15;16.75;;;16.10;86.10;;;;;;4993722;29;20145;-75
2021/07/04 02:16:27;;;;;;;;;;;16.10;86.00;;;;;;4994847;29;20161;-74
2021/07/04 02:19:06;;;;;;;17.80;16.50;;;16.10;86.30;;;;;;4994364;29;19974;-74
2021/07/04 02:21:53;;;;;;;17.88;16.58;;;16.20;85.80;;;;;;4993674;29;20047;-74
2021/07/04 02:24:51;;;;;;;17.73;16.42;;;16.20;85.80;;;;;;4971842;29;20085;-72
2021/07/04 02:27:38;;;;;;;18.35;16.95;;;16.20;85.50;;;;;;4995031;29;20057;-71
2021/07/04 02:30:17;;;;;;;18.35;16.75;;;16.20;85.80;;;;;;4994149;29;20055;-71
2021/07/04 02:32:55;;;;;;;17.92;16.63;;;16.20;86.10;;;;;;4995649;29;20059;-72
2021/07/04 02:35:29;;;;;;;18.30;16.90;;;16.20;85.80;;;;;;4993596;29;20086;-70
2021/07/04 02:38:03;;;;;;;18.02;16.67;;;16.10;86.50;;;;;;4994990;29;20046;-70
2021/07/04 02:40:39;;;;;;;17.77;16.27;;;16.10;86.50;;;;;;4993453;29;20077;-71
2021/07/04 02:43:16;;;;;;;17.80;16.50;;;16.10;86.70;;;;;;4994916;29;20050;-71
2021/07/04 02:45:49;;;;;;;18.83;17.23;;;16.10;87.10;;;;;;4993262;29;20050;-71
2021/07/04 02:48:23;;;;;;;18.52;17.13;;;16.10;87.00;;;;;;4994218;29;20205;-71
2021/07/04 02:50:56;;;;;;;18.65;17.25;;;16.00;87.30;;;;;;4992399;29;20038;-72
2021/07/04 02:53:33;;;;;;;18.25;16.80;;;16.00;87.00;;;;;;4993456;29;20133;-72
2021/07/04 02:56:13;;;;;;;17.92;16.63;;;16.10;86.40;;;;;;4993445;29;20050;-72
2021/07/04 02:58:46;;;;;;;17.80;16.50;;;16.10;86.40;;;;;;4981712;29;20099;-72
2021/07/04 03:01:18;;;;;;;17.98;16.48;;;16.10;85.90;;;;;;4995202;29;20582;-71
2021/07/04 03:03:53;;;;;;;18.08;16.67;;;16.20;86.60;;;;;;4995700;29;20042;-72
2021/07/04 03:06:26;;;;;;;17.67;16.17;;;16.10;86.90;;;;;;4982773;29;20181;-72
2021/07/04 03:08:58;;;;;;;17.85;16.48;;;16.10;86.70;;;;;;4997697;29;20050;-72
2021/07/04 03:11:31;;;;;;;17.15;15.85;;;16.10;87.00;;;;;;4997612;29;20077;-71
2021/07/04 03:14:04;;;;;;;18.15;16.67;;;16.00;87.40;;;;;;4996277;29;20057;-71
2021/07/04 03:16:36;;;;;;;18.00;16.60;;;16.00;88.20;;;;;;4983469;29;20111;-71
2021/07/04 03:19:08;;;;;;;18.00;16.60;;;16.00;88.30;;;;;;4997266;29;20050;-71
2021/07/04 03:21:41;;;;;;;18.02;16.63;;;15.90;88.00;;;;;;4983453;29;20111;-71
2021/07/04 03:24:15;;;;;;;17.60;16.20;;;15.90;88.20;;;;;;4996034;29;20046;-71
2021/07/04 03:26:48;;;;;;;17.45;16.15;;;15.90;88.00;;;;;;4983861;29;20880;-71
2021/07/04 03:29:21;;;;;;;17.65;16.15;;;15.90;87.60;;;;;;4984262;29;20070;-71
2021/07/04 03:31:54;;;;;;;18.50;17.00;;;15.90;87.60;;;;;;4996124;29;20054;-71
2021/07/04 03:34:27;;;;;;;17.35;15.95;;;15.90;87.30;;;;;;4981859;29;20058;-71
2021/07/04 03:36:59;;;;;;;18.13;16.63;;;15.90;87.10;;;;;;4995811;29;20062;-71
2021/07/04 03:39:31;;;;;;;18.30;16.90;;;15.90;88.00;;;;;;4997748;29;20074;-71
2021/07/04 03:42:04;;;;;;;17.92;16.58;;;15.90;87.40;;;;;;4981004;29;20042;-72
2021/07/04 03:44:37;;;;;;;18.48;16.88;;;15.90;87.50;;;;;;4996412;29;20518;-71
2021/07/04 03:47:10;;;;;;;18.38;16.98;;;15.90;88.10;;;;;;4996585;29;20045;-70
2021/07/04 03:49:42;;;;;;;18.00;16.70;;;15.90;87.80;;;;;;4981526;29;20051;-70
2021/07/04 03:52:18;;;;;;;18.42;16.73;;;15.90;88.00;;;;;;4995431;29;20062;-70
2021/07/04 03:54:50;;;;;;;17.60;16.30;;;15.90;89.40;;;;;;4995642;29;20050;-70
2021/07/04 03:57:32;;;;;;;18.30;16.58;;;15.90;88.50;;;;;;4997358;29;20078;-71
2021/07/04 04:00:30;;;;;;;18.40;17.00;;;15.80;88.30;;;;;;4972351;29;20218;-71
2021/07/04 04:03:11;;;;;;;18.10;16.73;;;15.80;88.30;;;;;;4995759;29;20058;-71
2021/07/04 04:05:49;;;;;;;18.30;16.90;;;15.80;88.40;;;;;;4995880;29;20534;-70
2021/07/04 04:08:24;;;;;;;18.25;16.85;;;15.90;88.40;;;;;;4982471;29;20137;-70
2021/07/04 04:10:57;;;;;;;18.45;16.95;;;15.90;87.90;;;;;;4980242;29;20058;-71
2021/07/04 04:13:32;;;;;;;17.95;16.55;;;16.00;87.80;;;;;;4983162;29;20046;-71
2021/07/04 04:16:13;;;;;;;18.13;16.73;;;16.00;87.70;;;;;;4980410;29;20050;-71
2021/07/04 04:18:47;;;;;;;18.45;16.90;;;16.10;87.90;;;;;;4995838;29;20477;-70
2021/07/04 04:21:19;;;;;;;17.52;16.23;;;16.10;87.50;;;;;;4996473;29;20050;-72
2021/07/04 04:23:59;;;;;;;;;;;16.10;87.80;;;;;;4995560;29;20054;-71
2021/07/04 04:26:32;;;;;;;17.60;16.23;;;16.10;87.60;;;;;;4983110;29;19924;-71
2021/07/04 04:29:04;;;;;;;17.73;16.33;;;16.10;87.50;;;;;;4982974;29;20112;-72
2021/07/04 04:31:38;;;;;;;17.80;16.30;;;16.10;87.40;;;;;;4996644;29;20046;-72
2021/07/04 04:34:11;;;;;;;17.90;16.40;;;16.10;87.30;;;;;;4979601;29;20043;-72
2021/07/04 04:36:43;;;;;;;17.52;16.13;;;16.20;87.40;;;;;;4982139;29;20065;-71
2021/07/04 04:39:15;;;;;;;17.15;15.85;;;16.30;87.20;;;;;;4981296;29;21228;-72
2021/07/04 04:41:48;;;;;;;17.98;16.58;;;16.30;86.90;;;;;;4982190;29;20046;-72
2021/07/04 04:44:36;;;;;;;18.90;17.33;;;16.30;86.90;;;;;;4981918;29;20457;-72
2021/07/04 04:47:08;;;;;;;18.30;16.90;;;16.40;86.80;;;;;;4995353;29;20133;-72
2021/07/04 04:49:40;;;;;;;18.13;16.73;;;16.40;86.60;;;;;;4995794;29;20078;-72
2021/07/04 04:52:12;;;;;;;18.10;16.70;;;16.40;86.50;;;;;;4995654;29;20062;-73
2021/07/04 04:54:44;;;;;;;18.13;16.65;;;16.50;86.30;;;;;;4981640;29;20784;-72
2021/07/04 04:57:16;;;;;;;17.40;16.10;;;16.50;86.50;;;;;;4982579;29;20145;-73
2021/07/04 04:59:48;;;;;;;18.23;16.83;;;16.60;86.20;;;;;;4982064;29;20099;-73
2021/07/04 05:02:20;;;;;;;18.55;16.95;;;16.60;86.30;;;;;;4981528;29;20078;-72
2021/07/04 05:04:52;;;;;;;18.58;17.08;;;16.70;86.70;;;;;;4981620;29;20215;-71
2021/07/04 05:07:24;;;;;;;18.15;16.75;;;16.70;87.20;;;;;;4981483;29;20039;-72
2021/07/04 05:09:56;;;;;;;19.27;17.58;;;16.80;87.20;;;;;;4979991;29;20077;-72
2021/07/04 05:12:28;;;;;;;18.73;17.13;;;16.90;87.40;;;;;;4978664;29;20053;-71
2021/07/04 05:15:00;;;;;;;18.40;17.00;;;16.90;87.20;;;;;;4978602;29;20125;-71
2021/07/04 05:17:32;;;;;;;18.67;17.17;;;17.00;87.00;;;;;;4978900;29;20088;-72
2021/07/04 05:20:06;;;;;;;18.45;17.05;;;17.00;86.30;;;;;;4980569;29;20406;-75
2021/07/04 05:22:38;;;;;;;18.45;17.05;;;17.00;86.10;;;;;;4994716;29;20046;-74
2021/07/04 05:25:11;;;;;;;18.63;17.15;;;17.00;85.90;;;;;;4980129;29;20050;-73
2021/07/04 05:27:44;;;;;;;18.40;17.00;;;17.00;86.10;;;;;;4995901;29;20705;-74
2021/07/04 05:30:16;;;;;;;18.20;16.77;;;16.90;85.80;;;;;;4981420;29;20054;-75
2021/07/04 05:32:48;;;;;;;19.17;17.58;;;16.90;85.90;;;;;;4995746;29;20082;-74
2021/07/04 05:35:20;;;;;;;18.63;17.13;;;16.90;86.20;;;;;;4978839;29;20070;-75
2021/07/04 05:37:53;;;;;;;18.50;17.05;;;16.90;85.70;;;;;;4980745;29;20553;-75
2021/07/04 05:40:25;;;;;;;17.88;16.58;;;16.90;85.90;;;;;;4981245;29;20073;-74
2021/07/04 05:42:57;;;;;;;18.17;16.77;;;17.00;85.80;;;;;;4982306;29;20422;-75
2021/07/04 05:45:28;;;;;;;18.92;17.42;;;17.10;86.10;;;;;;4980597;29;20117;-75
2021/07/04 05:48:00;;;;;;;18.05;16.65;;;17.20;85.90;;;;;;4974646;29;20074;-75
2021/07/04 05:50:32;;;;;;;19.48;17.85;;;17.10;85.20;;;;;;4980829;29;20042;-75
2021/07/04 05:53:04;;;;;;;18.30;16.85;;;17.20;86.40;;;;;;4995459;29;20054;-74
2021/07/04 05:55:36;;;;;;;19.75;18.02;;;17.20;86.20;;;;;;4979663;29;20222;-74
2021/07/04 05:58:08;;;;;;;19.13;17.63;;;17.30;86.20;;;;;;4980709;29;20046;-75
2021/07/04 06:00:40;;;;;;;18.30;16.80;;;17.40;85.80;;;;;;4980334;29;20606;-74
2021/07/04 06:03:12;;;;;;;19.13;17.52;;;17.50;85.50;;;;;;4983435;29;20042;-75
2021/07/04 06:05:44;;;;;;;17.95;16.45;;;17.60;83.70;;;;;;4979106;29;20128;-74
2021/07/04 06:08:16;;;;;;;20.02;18.38;;;17.80;83.80;;;;;;4995268;29;20189;-74
2021/07/04 06:10:51;;;;;;;19.48;17.90;;;17.80;83.60;;;;;;4980729;29;20149;-74
2021/07/04 06:13:23;;;;;;;17.55;16.15;;;17.70;82.80;;;;;;4981200;29;20400;-75
2021/07/04 06:15:55;;;;;;;17.58;16.27;;;17.70;82.60;;;;;;4979533;29;20903;-74
2021/07/04 06:18:28;;;;;;;17.67;16.27;;;17.70;83.50;;;;;;4995187;29;20055;-73
2021/07/04 06:21:00;;;;;;;18.25;16.85;;;17.70;82.90;;;;;;4978389;29;20107;-75
2021/07/04 06:23:32;;;;;;;18.45;16.95;;;17.70;83.40;;;;;;4993028;29;20054;-73
2021/07/04 06:26:04;;;;;;;18.35;16.85;;;17.90;83.30;;;;;;4979322;29;20137;-75
2021/07/04 06:28:36;;;;;;;20.08;18.27;;;18.10;82.70;;;;;;4994227;29;20461;-75
2021/07/04 06:31:08;;;;;;;20.02;18.35;;;18.30;82.20;;;;;;4993764;29;20327;-75
2021/07/04 06:33:40;;;;;;;19.70;18.15;;;18.50;82.00;;;;;;4978906;29;20054;-75
2021/07/04 06:36:12;;;;;;;19.75;18.15;;;18.70;80.50;;;;;;4981034;29;20058;-74
2021/07/04 06:38:44;;;;;;;19.98;18.38;;;18.80;79.30;;;;;;4982941;29;20161;-75
2021/07/04 06:41:17;;;;;;;19.27;17.77;;;18.90;78.10;;;;;;4981612;29;20577;-75
2021/07/04 06:43:49;;;;;;;18.50;17.10;;;19.00;79.40;;;;;;4982767;29;20058;-74
2021/07/04 06:46:21;;;;;;;19.23;17.52;;;19.10;75.90;;;;;;4981516;29;20580;-74
2021/07/04 06:48:53;;;;;;;17.83;16.50;;;19.00;77.50;;;;;;4984118;29;20054;-75
2021/07/04 06:51:25;;;;;;;21.63;19.83;;;19.10;76.60;;;;;;4981140;29;20619;-76
2021/07/04 06:53:57;;;;;;;20.13;18.42;;;19.30;77.90;;;;;;4981731;29;20056;-75
2021/07/04 06:56:28;;;;;;;17.98;16.55;;;19.50;76.80;;;;;;4996787;29;20050;-75
2021/07/04 06:59:00;;;;;;;21.38;19.52;;;19.60;75.20;;;;;;4982741;29;20050;-75
2021/07/04 07:01:33;;;;;;;17.73;16.42;;;19.60;75.40;;;;;;4981592;29;20107;-75
2021/07/04 07:04:05;;;;;;;18.30;16.80;;;19.70;75.40;;;;;;4981952;29;20121;-75
2021/07/04 07:06:37;;;;;;;18.40;17.00;;;19.70;72.90;;;;;;4996800;29;20751;-75
2021/07/04 07:09:09;;;;;;;18.67;17.17;;;19.70;74.80;;;;;;4996321;29;20107;-75
2021/07/04 07:11:41;;;;;;;20.35;18.73;;;19.80;75.00;;;;;;4982376;29;20042;-74
2021/07/04 07:14:13;;;;;;;18.17;16.67;;;20.00;74.30;;;;;;4997389;29;20054;-74
2021/07/04 07:16:44;;;;;;;18.63;17.10;;;20.20;74.90;;;;;;4997398;29;20074;-75
2021/07/04 07:19:17;;;;;;;20.42;18.58;;;20.40;75.50;;;;;;4997594;29;20134;-74
2021/07/04 07:21:48;;;;;;;18.88;17.40;;;20.60;74.90;;;;;;4982405;29;20130;-75
2021/07/04 07:24:20;;;;;;;20.83;19.13;;;20.70;74.50;;;;;;4983568;29;20134;-74
2021/07/04 07:26:52;;;;;;;18.48;17.08;;;20.80;74.10;;;;;;4981699;29;20928;-74
2021/07/04 07:29:24;;;;;;;18.40;17.05;;;20.90;73.40;;;;;;4984283;29;20042;-75
2021/07/04 07:31:56;;;;;;;17.75;16.45;;;20.90;72.80;;;;;;4981448;29;20057;-73
2021/07/04 07:34:28;;;;;;;17.63;16.23;;;20.70;73.60;;;;;;4983736;29;20050;-74
2021/07/04 07:37:00;;;;;;;19.48;17.92;;;20.60;73.50;;;;;;4982854;29;20093;-74
2021/07/04 07:39:32;;;;;;;18.35;17.05;;;20.60;73.90;;;;;;4981992;29;20530;-74
2021/07/04 07:42:04;;;;;;;18.00;16.63;;;20.80;74.10;;;;;;4981186;29;20107;-74
2021/07/04 07:44:36;;;;;;;18.27;16.88;;;20.80;73.80;;;;;;4995242;29;20538;-73
2021/07/04 07:47:10;;;;;;;18.40;16.90;;;20.70;74.10;;;;;;4982441;29;20042;-73
2021/07/04 07:49:42;;;;;;;18.27;16.88;;;20.70;73.30;;;;;;4983112;29;20050;-74
2021/07/04 07:52:14;;;;;;;18.02;16.55;;;20.90;72.90;;;;;;4981777;29;20110;-74
2021/07/04 07:54:46;;;;;;;18.00;16.70;;;21.00;72.90;;;;;;4994808;29;20604;-73
2021/07/04 07:57:20;;;;;;;17.67;16.38;;;21.00;71.80;;;;;;4982608;29;20088;-74
2021/07/04 07:59:53;;;;;;;17.90;16.60;;;21.10;72.50;;;;;;4994976;29;20065;-74
2021/07/04 08:02:24;;;;;;;18.55;17.15;;;21.20;72.20;;;;;;4980135;29;20050;-75
2021/07/04 08:04:58;;;;;;;18.20;16.90;;;21.40;72.60;;;;;;4992376;29;20047;-73
2021/07/04 08:07:30;;;;;;;18.08;16.77;;;21.40;71.20;;;;;;4993051;29;20111;-72
2021/07/04 08:10:04;;;;;;;17.92;16.63;;;21.50;71.60;;;;;;4981434;29;20131;-72
2021/07/04 08:12:36;;;;;;;17.98;16.67;;;21.50;71.80;;;;;;4995786;29;20046;-69
2021/07/04 08:15:09;;;;;;;18.13;16.63;;;21.50;70.30;;;;;;4981062;29;20116;-68
2021/07/04 08:17:41;;;;;;;18.05;16.73;;;21.50;73.00;;;;;;4980855;29;20041;-69
2021/07/04 08:20:16;;;;;;;18.00;16.60;;;21.50;73.30;;;;;;4994205;29;20517;-69
2021/07/04 08:22:48;;;;;;;18.23;16.92;;;21.70;72.00;;;;;;4994907;29;20465;-68
2021/07/04 08:25:20;;;;;;;18.75;17.35;;;21.60;70.70;;;;;;4980375;29;20058;-68
2021/07/04 08:27:52;;;;;;;18.35;16.95;;;21.60;69.80;;;;;;4980837;29;20125;-68
2021/07/04 08:30:24;;;;;;;18.25;16.95;;;21.70;70.40;;;;;;4981274;29;20122;-69
2021/07/04 08:32:56;;;;;;;18.48;17.08;;;21.60;72.20;;;;;;4981636;29;20077;-69
2021/07/04 08:35:28;;;;;;;17.88;16.58;;;21.60;71.70;;;;;;4978704;29;20074;-68
2021/07/04 08:38:00;;;;;;;18.48;17.08;;;21.70;71.70;;;;;;4980603;29;20070;-68
2021/07/04 08:40:32;;;;;;;18.77;17.38;;;21.80;72.00;;;;;;4980630;29;20114;-68
2021/07/04 08:43:05;;;;;;;18.17;16.83;;;21.80;71.30;;;;;;4980202;29;20098;-72
2021/07/04 08:45:38;;;;;;;17.98;16.67;;;21.80;71.00;;;;;;4992073;29;20066;-70
2021/07/04 08:48:10;;;;;;;17.75;16.35;;;22.00;70.90;;;;;;4993177;29;20133;-71
2021/07/04 08:50:42;;;;;;;17.60;16.30;;;22.00;71.10;;;;;;4979972;29;20070;-70
2021/07/04 08:53:14;;;;;;;17.75;16.45;;;21.90;69.40;;;;;;4979847;29;20129;-70
2021/07/04 08:55:47;;;;;;;17.55;16.25;;;21.90;71.00;;;;;;4979614;29;20708;-71
2021/07/04 08:58:25;;;;;;;17.42;16.13;;;21.80;71.40;;;;;;4979314;29;20070;-70
2021/07/04 09:01:18;;;;;;;18.30;16.80;;;21.80;70.90;;;;;;4980185;29;20053;-71
2021/07/04 09:03:53;;;;;;;17.85;16.55;;;21.80;71.20;;;;;;4979777;29;20054;-69
2021/07/04 09:06:47;;;;;;;17.75;16.45;;;21.90;71.20;;;;;;4980095;29;20111;-70
2021/07/04 09:09:25;;;;;;;17.80;16.50;;;22.00;70.70;;;;;;4978183;29;20522;-70
2021/07/04 09:12:08;;;;;;;18.40;17.00;;;22.10;68.70;;;;;;4979641;29;21131;-70
2021/07/04 09:14:44;;;;;;;18.45;17.15;;;22.20;70.30;;;;;;4993471;29;20115;-70
2021/07/04 09:17:35;;;;;;;19.92;18.33;;;22.30;69.50;;;;;;4979199;29;20053;-70
2021/07/04 09:20:13;;;;;;;18.23;16.83;;;22.40;68.90;;;;;;4978852;29;20781;-70
2021/07/04 09:22:56;;;;;;;19.35;17.85;;;22.30;69.20;;;;;;4979987;29;20093;-70
2021/07/04 09:25:30;;;;;;;22.27;20.05;;;22.50;70.20;;;;;;4978788;29;20149;-71
2021/07/04 09:28:13;;;;;;;22.02;20.02;;;22.60;68.00;;;;;;4981876;29;20490;-70
2021/07/04 09:30:54;;;;;;;18.27;16.90;;;22.70;68.10;;;;;;4979673;29;20133;-70
2021/07/04 09:33:32;;;;;;;18.60;17.20;;;22.80;68.00;;;;;;4977438;29;20099;-70
2021/07/04 09:36:09;;;;;;;26.35;24.02;;;22.80;67.00;;;;;;4977536;29;20073;-71
2021/07/04 09:38:43;;;;;;;20.20;18.50;;;22.80;67.20;;;;;;4979638;29;20042;-71
2021/07/04 09:41:16;;;;;;;23.75;21.75;;;22.70;67.10;;;;;;4991475;29;20415;-71
2021/07/04 09:43:48;;;;;;;24.08;22.08;;;22.60;67.50;;;;;;4977260;29;20042;-70
2021/07/04 09:46:20;;;;;;;18.20;16.88;;;22.80;66.70;;;;;;4979661;29;20094;-70
2021/07/04 09:48:53;;;;;;;18.83;17.42;;;22.70;67.50;;;;;;4978088;29;20453;-69
2021/07/04 09:51:27;;;;;;;17.45;16.10;;;22.70;67.70;;;;;;4977729;29;20042;-70
2021/07/04 09:54:00;;;;;;;19.25;17.85;;;22.70;66.20;;;;;;4976826;29;20053;-69
2021/07/04 09:56:34;;;;;;;17.70;16.40;;;22.70;69.20;;;;;;4984498;29;20448;-69
2021/07/04 09:59:06;;;;;;;17.55;16.25;;;22.70;68.30;;;;;;4979514;29;20054;-69
2021/07/04 10:01:42;;;;;;;17.73;16.42;;;22.70;66.60;;;;;;4980115;29;20108;-69
2021/07/04 10:04:35;;;;;;;17.85;16.55;;;22.60;66.50;;;;;;4979172;29;20144;-69
2021/07/04 10:07:07;;;;;;;17.25;15.98;;;22.60;67.80;;;;;;4987023;29;20039;-70
2021/07/04 10:09:40;;;;;;;17.55;16.25;;;22.60;67.40;;;;;;4981122;29;20258;-70
2021/07/04 10:12:12;;;;;;;16.85;15.65;;;22.60;68.20;;;;;;4995135;29;20504;-69
2021/07/04 10:14:44;;;;;;;17.23;16.02;;;22.70;67.90;;;;;;4995881;29;20177;-69
2021/07/04 10:17:16;;;;;;;17.70;16.42;;;22.80;68.00;;;;;;4981855;29;20111;-69
2021/07/04 10:19:50;;;;;;;17.38;16.08;;;22.80;67.80;;;;;;4996082;29;20708;-69
2021/07/04 10:22:23;;;;;;;17.25;15.95;;;22.90;66.70;;;;;;4981653;29;20046;-69
2021/07/04 10:24:56;;;;;;;17.38;16.08;;;23.00;67.10;;;;;;4981346;29;20111;-70
2021/07/04 10:27:28;;;;;;;17.35;15.95;;;23.00;66.40;;;;;;4981976;29;20639;-71
2021/07/04 10:30:01;;;;;;;16.85;15.65;;;23.00;66.40;;;;;;4982408;29;20050;-69
2021/07/04 10:32:33;;;;;;;17.42;16.13;;;23.00;66.60;;;;;;4981239;29;20135;-69
2021/07/04 10:35:09;;;;;;;17.02;15.82;;;23.00;68.10;;;;;;4981446;29;20133;-69
2021/07/04 10:37:41;;;;;;;17.48;16.17;;;23.00;67.50;;;;;;4995140;29;20066;-70
2021/07/04 10:40:18;;;;;;;17.63;16.33;;;22.90;67.50;;;;;;4981629;29;20145;-69
2021/07/04 10:42:50;;;;;;;17.95;16.65;;;23.00;67.70;;;;;;4995068;29;20057;-69
2021/07/04 10:45:29;;;;;;;17.13;15.82;;;23.10;68.40;;;;;;4980127;29;20069;-69
2021/07/04 10:48:20;;;;;;;17.48;16.17;;;23.10;67.90;;;;;;4980210;29;20050;-69
2021/07/04 10:51:15;;;;;;;17.13;15.93;;;23.30;68.30;;;;;;4980585;29;20514;-69
2021/07/04 10:53:55;;;;;;;17.35;16.00;;;23.30;67.20;;;;;;4995370;29;20054;-70
2021/07/04 10:56:40;;;;;;;;;;;23.20;67.00;;;;;;4994368;29;20093;-69
2021/07/04 10:59:15;;;;;;;17.33;15.88;;;23.20;68.00;;;;;;4981048;29;20035;-69
2021/07/04 11:01:55;;;;;;;16.90;15.70;;;23.20;67.50;;;;;;4979246;29;20570;-69
2021/07/04 11:04:30;;;;;;;17.13;15.93;;;23.30;66.90;;;;;;4995416;29;20082;-70
2021/07/04 11:07:04;;;;;;;17.30;16.00;;;23.30;66.60;;;;;;4980269;29;21055;-70
2021/07/04 11:09:51;;;;;;;17.38;16.08;;;23.30;65.60;;;;;;4980052;29;20062;-69
2021/07/04 11:12:34;;;;;;;17.42;16.02;;;23.30;66.50;;;;;;4996208;29;20149;-70
2021/07/04 11:15:24;;;;;;;17.00;15.80;;;23.30;65.60;;;;;;4993250;29;20056;-70
2021/07/04 11:17:59;;;;;;;17.38;16.13;;;23.40;65.80;;;;;;4980337;29;20147;-69
2021/07/04 11:20:40;;;;;;;18.02;16.63;;;23.30;64.80;;;;;;4974805;29;20051;-70
2021/07/04 11:23:19;;;;;;;17.88;16.48;;;23.40;66.60;;;;;;4981821;29;20046;-70
2021/07/04 11:25:55;;;;;;;17.17;15.98;;;23.40;65.70;;;;;;4994503;29;20770;-69
2021/07/04 11:28:28;;;;;;;17.30;16.08;;;23.40;65.70;;;;;;4981623;29;20074;-69
2021/07/04 11:31:05;;;;;;;17.15;15.85;;;23.30;64.10;;;;;;4995689;29;20038;-69
2021/07/04 11:33:42;;;;;;;17.35;16.05;;;23.20;60.60;;;;;;4980626;29;20552;-70
2021/07/04 11:36:14;;;;;;;16.85;15.65;;;23.10;58.80;;;;;;4977918;29;20091;-70
2021/07/04 11:39:11;;;;;;;17.25;15.90;;;23.00;63.60;;;;;;4981447;29;20057;-70
2021/07/04 11:41:50;;;;;;;17.38;16.10;;;23.00;64.50;;;;;;4981117;29;20123;-70
2021/07/04 11:44:24;;;;;;;17.58;16.33;;;22.90;64.80;;;;;;4992879;29;20049;-69
2021/07/04 11:46:56;;;;;;;17.20;15.90;;;22.80;65.50;;;;;;4994130;29;20099;-69
2021/07/04 11:49:28;;;;;;;17.50;16.30;;;22.80;66.30;;;;;;4981499;29;20421;-70
2021/07/04 11:52:04;;;;;;;17.30;16.00;;;22.90;66.20;;;;;;4975256;29;20769;-69
2021/07/04 11:54:36;;;;;;;17.80;16.50;;;22.80;65.80;;;;;;4993431;29;20115;-70
2021/07/04 12:00:07;;;;;;;16.90;15.70;;;22.80;66.90;;;;;;4981020;29;20050;-70
2021/07/04 12:02:52;;;;;;;16.83;15.63;;;22.80;67.30;;;;;;4979825;29;20054;-70
2021/07/04 12:05:23;;;;;;;17.08;15.88;;;22.80;67.00;;;;;;4980470;29;20117;-70
2021/07/04 12:07:55;;;;;;;16.88;15.68;;;22.70;67.00;;;;;;4982200;29;20535;-70
2021/07/04 12:10:27;;;;;;;16.52;15.23;;;22.60;67.70;;;;;;4979567;29;20400;-71
2021/07/04 12:13:01;;;;;;;16.90;15.65;;;22.60;67.20;;;;;;4980332;29;20792;-70
2021/07/04 12:15:35;;;;;;;17.23;15.95;;;22.50;67.80;;;;;;4994192;29;20042;-69
2021/07/04 12:18:12;;;;;;;16.60;15.40;;;22.50;67.40;;;;;;4981642;29;20138;-70
2021/07/04 12:20:54;;;;;;;17.15;15.82;;;22.40;68.00;;;;;;4989623;29;20046;-70
2021/07/04 12:23:26;;;;;;;16.67;15.48;;;22.30;67.90;;;;;;4982056;29;20066;-70
2021/07/04 12:26:07;;;;;;;16.65;15.45;;;22.10;69.40;;;;;;4994564;29;20058;-69
2021/07/04 12:28:40;;;;;;;16.58;15.38;;;22.10;69.90;;;;;;4979396;29;20122;-70
2021/07/04 12:31:14;;;;;;;17.02;15.82;;;22.00;70.70;;;;;;4979326;29;20134;-71
2021/07/04 12:33:47;;;;;;;16.60;15.30;;;21.90;71.20;;;;;;4980161;29;20545;-69
2021/07/04 12:36:19;;;;;;;16.77;15.50;;;21.90;72.40;;;;;;4979495;29;20149;-70
2021/07/04 12:38:52;;;;;;;16.50;15.27;;;21.70;75.00;;;;;;4995340;29;20109;-70
2021/07/04 12:41:33;;;;;;;16.70;15.50;;;21.60;72.60;;;;;;4980262;29;20550;-72
2021/07/04 12:44:14;;;;;;;16.48;15.25;;;21.50;73.50;;;;;;4979251;29;20050;-70
2021/07/04 12:46:46;;;;;;;16.52;15.20;;;21.50;73.80;;;;;;4988289;29;20092;-69
2021/07/04 12:49:19;;;;;;;16.55;15.35;;;21.50;74.40;;;;;;4980977;29;20069;-69
2021/07/04 12:51:51;;;;;;;16.55;15.25;;;21.50;74.30;;;;;;4979007;29;20570;-69
2021/07/04 12:54:31;;;;;;;15.98;14.77;;;21.30;74.10;;;;;;4980696;29;20134;-70
2021/07/04 12:57:06;;;;;;;16.85;15.65;;;21.20;75.10;;;;;;4979614;29;20125;-69
2021/07/04 12:59:38;;;;;;;17.30;16.00;;;21.00;76.50;;;;;;4994685;29;20103;-71
2021/07/04 13:02:10;;;;;;;16.60;15.40;;;20.80;77.80;;;;;;4979908;29;20169;-70
2021/07/04 13:04:46;;;;;;;17.35;16.05;;;20.70;78.80;;;;;;4980670;29;20050;-70
2021/07/04 13:07:21;;;;;;;16.80;15.40;;;20.80;78.70;;;;;;4980775;29;20138;-71